createdAt,value
2023-02-09T00:00:02.412Z,8.50
2023-02-09T00:02:33.707Z,6.50
2023-02-09T00:05:01.613Z,10.50
2023-02-09T00:07:29.536Z,6.00
2023-02-09T00:09:57.727Z,5.25
2023-02-09T00:12:43.093Z,9.25
2023-02-09T00:15:11.279Z,4.00
2023-02-09T00:17:40.646Z,4.00
2023-02-09T00:20:09.174Z,8.50
2023-02-09T00:22:37.132Z,7.00
2023-02-09T00:25:06.017Z,9.50
2023-02-09T00:27:35.742Z,8.00
2023-02-09T00:30:03.991Z,5.00
2023-02-09T00:32:32.868Z,6.75
2023-02-09T00:35:02.261Z,11.50
2023-02-09T00:37:30.246Z,4.50
2023-02-09T00:39:58.440Z,9.00
2023-02-09T00:42:26.379Z,9.00
2023-02-09T00:44:54.350Z,7.50
2023-02-09T00:47:22.516Z,6.50
2023-02-09T00:49:50.420Z,0.00
2023-02-09T00:52:19.836Z,5.25
2023-02-09T00:54:48.078Z,6.00
2023-02-09T00:57:15.974Z,9.75
2023-02-09T00:59:43.894Z,6.75
2023-02-09T01:02:11.795Z,10.25
2023-02-09T01:04:40.120Z,7.00
2023-02-09T01:07:08.393Z,8.00
2023-02-09T01:09:37.761Z,6.00
2023-02-09T01:12:05.809Z,2.50
2023-02-09T01:14:34.025Z,5.00
2023-02-09T01:17:02.108Z,8.50
2023-02-09T01:19:30.122Z,2.50
2023-02-09T01:21:58.022Z,9.50
2023-02-09T01:24:25.924Z,6.50
2023-02-09T01:26:55.201Z,7.00
2023-02-09T01:29:23.119Z,6.00
2023-02-09T01:31:51.366Z,9.00
2023-02-09T01:34:19.798Z,8.50
2023-02-09T01:36:48.461Z,9.75
2023-02-09T01:39:16.485Z,6.25
2023-02-09T01:41:44.756Z,3.00
2023-02-09T01:44:49.473Z,6.50
2023-02-09T01:47:20.034Z,3.75
2023-02-09T01:49:48.734Z,7.50
2023-02-09T01:52:18.707Z,4.50
2023-02-09T01:54:47.449Z,9.25
2023-02-09T01:57:16.687Z,8.75
2023-02-09T01:59:45.733Z,7.00
2023-02-09T02:02:13.619Z,7.00
2023-02-09T02:04:43.514Z,4.75
2023-02-09T02:07:13.742Z,9.50
2023-02-09T02:09:43.111Z,7.25
2023-02-09T02:12:11.393Z,7.00
2023-02-09T02:14:40.245Z,10.00
2023-02-09T02:17:14.137Z,6.75
2023-02-09T02:20:26.816Z,9.75
2023-02-09T02:23:02.100Z,10.50
2023-02-09T02:26:00.594Z,5.50
2023-02-09T02:28:34.941Z,9.00
2023-02-09T02:31:23.519Z,7.00
2023-02-09T02:33:55.426Z,4.00
2023-02-09T02:36:26.351Z,8.00
2023-02-09T02:38:56.042Z,7.75
2023-02-09T02:41:27.971Z,7.00
2023-02-09T02:43:58.559Z,7.00
2023-02-09T02:46:29.995Z,9.25
2023-02-09T02:49:01.885Z,7.00
2023-02-09T02:51:31.529Z,3.00
2023-02-09T02:54:01.604Z,3.75
2023-02-09T02:56:30.577Z,8.00
2023-02-09T02:58:59.849Z,8.75
2023-02-09T03:01:29.128Z,6.50
2023-02-09T03:03:57.035Z,9.00
2023-02-09T03:06:26.386Z,8.50
2023-02-09T03:08:55.880Z,6.00
2023-02-09T03:11:25.418Z,6.50
2023-02-09T03:14:02.184Z,8.50
2023-02-09T03:16:33.756Z,3.75
2023-02-09T03:19:09.740Z,5.00
2023-02-09T03:21:44.116Z,0.25
2023-02-09T03:24:14.203Z,7.00
2023-02-09T03:26:44.277Z,11.50
2023-02-09T03:29:24.370Z,9.00
2023-02-09T03:31:52.391Z,7.50
2023-02-09T03:34:20.427Z,5.50
2023-02-09T03:36:52.742Z,11.00
2023-02-09T03:39:20.843Z,8.75
2023-02-09T03:41:49.047Z,9.00
2023-02-09T03:44:29.465Z,7.25
2023-02-09T03:46:58.316Z,5.00
2023-02-09T03:49:26.421Z,6.50
2023-02-09T03:51:55.739Z,9.00
2023-02-09T03:54:23.778Z,7.00
2023-02-09T03:56:51.738Z,7.00
2023-02-09T03:59:20.982Z,7.50
2023-02-09T04:01:49.338Z,3.25
2023-02-09T04:04:17.413Z,4.00
2023-02-09T04:06:45.322Z,9.25
2023-02-09T04:09:14.972Z,7.75
2023-02-09T04:11:43.532Z,4.00
2023-02-09T04:14:11.624Z,4.50
2023-02-09T04:16:39.613Z,9.00
2023-02-09T04:19:09.583Z,8.00
2023-02-09T04:21:37.592Z,7.75
2023-02-09T04:24:05.738Z,8.00
2023-02-09T04:26:35.261Z,6.50
2023-02-09T04:29:03.341Z,7.25
2023-02-09T04:31:31.794Z,5.50
2023-02-09T04:34:00.228Z,7.00
2023-02-09T04:36:28.250Z,9.00
2023-02-09T04:38:56.180Z,9.50
2023-02-09T04:41:24.163Z,7.00
2023-02-09T04:43:53.514Z,5.00
2023-02-09T04:46:21.788Z,8.00
2023-02-09T04:48:49.900Z,7.00
2023-02-09T04:51:17.994Z,7.00
2023-02-09T04:53:46.289Z,8.50
2023-02-09T04:56:15.309Z,6.25
2023-02-09T04:59:00.918Z,9.50
2023-02-09T05:01:30.344Z,6.00
2023-02-09T05:03:58.514Z,8.75
2023-02-09T05:06:26.540Z,7.00
2023-02-09T05:08:54.501Z,9.00
2023-02-09T05:11:24.225Z,10.00
2023-02-09T05:13:53.460Z,9.00
2023-02-09T05:16:21.459Z,6.25
2023-02-09T05:18:51.559Z,1.50
2023-02-09T05:21:19.571Z,8.50
2023-02-09T05:23:47.834Z,8.50
2023-02-09T05:26:15.786Z,6.75
2023-02-09T05:28:43.809Z,6.00
2023-02-09T05:31:11.796Z,4.75
2023-02-09T05:33:39.845Z,5.00
2023-02-09T05:36:12.745Z,2.00
2023-02-09T05:38:40.847Z,7.00
2023-02-09T05:41:10.263Z,11.00
2023-02-09T05:43:38.348Z,6.00
2023-02-09T05:46:08.480Z,4.50
2023-02-09T05:48:37.478Z,6.00
2023-02-09T05:51:06.012Z,9.25
2023-02-09T05:53:35.374Z,11.00
2023-02-09T05:56:03.337Z,4.50
2023-02-09T05:58:31.358Z,8.00
2023-02-09T06:00:59.304Z,1.00
2023-02-09T06:03:27.819Z,10.50
2023-02-09T06:05:56.124Z,11.50
2023-02-09T06:08:24.094Z,10.00
2023-02-09T06:10:53.490Z,6.50
2023-02-09T06:13:21.685Z,10.50
2023-02-09T06:15:49.691Z,10.25
2023-02-09T06:18:17.981Z,6.75
2023-02-09T06:20:46.259Z,7.25
2023-02-09T06:23:14.399Z,8.50
2023-02-09T06:25:42.716Z,1.00
2023-02-09T06:28:12.218Z,6.50
2023-02-09T06:30:40.662Z,7.00
2023-02-09T06:33:19.455Z,8.50
2023-02-09T06:35:52.492Z,4.00
2023-02-09T06:38:20.691Z,10.00
2023-02-09T06:40:48.818Z,9.25
2023-02-09T06:43:33.278Z,9.50
2023-02-09T06:46:07.088Z,9.50
2023-02-09T06:48:35.152Z,7.00
2023-02-09T06:51:03.384Z,7.00
2023-02-09T06:53:31.732Z,11.50
2023-02-09T06:56:02.948Z,6.00
2023-02-09T06:58:32.726Z,10.50
2023-02-09T07:01:03.343Z,6.00
2023-02-09T07:03:31.816Z,7.00
2023-02-09T07:06:04.560Z,12.00
2023-02-09T07:08:32.602Z,7.75
2023-02-09T07:11:02.986Z,9.00
2023-02-09T07:13:32.950Z,8.50
2023-02-09T07:16:02.059Z,3.25
2023-02-09T07:18:30.498Z,9.25
2023-02-09T07:20:59.075Z,4.25
2023-02-09T07:23:27.023Z,10.00
2023-02-09T07:25:55.139Z,8.00
2023-02-09T07:28:23.170Z,8.50
2023-02-09T07:30:53.947Z,13.50
2023-02-09T07:33:22.255Z,9.25
2023-02-09T07:35:50.242Z,8.50
2023-02-09T07:38:18.464Z,11.50
2023-02-09T07:40:47.056Z,13.25
2023-02-09T07:43:15.497Z,12.25
2023-02-09T07:45:44.117Z,7.00
2023-02-09T07:48:14.087Z,10.25
2023-02-09T07:50:42.076Z,12.25
2023-02-09T07:53:10.222Z,0.00
2023-02-09T07:55:38.452Z,11.00
2023-02-09T07:58:08.207Z,10.00
2023-02-09T08:00:36.247Z,10.50
2023-02-09T08:03:05.075Z,10.25
2023-02-09T08:05:36.181Z,15.00
2023-02-09T08:08:07.255Z,6.25
2023-02-09T08:10:35.533Z,9.50
2023-02-09T08:13:03.981Z,12.75
2023-02-09T08:15:34.832Z,10.00
2023-02-09T08:18:04.209Z,8.00
2023-02-09T08:20:32.747Z,5.50
2023-02-09T08:23:05.053Z,10.00
2023-02-09T08:25:34.953Z,12.75
2023-02-09T08:28:03.793Z,8.50
2023-02-09T08:30:31.847Z,12.00
2023-02-09T08:32:59.857Z,9.00
2023-02-09T08:35:30.317Z,10.50
2023-02-09T08:38:07.679Z,12.00
2023-02-09T08:40:45.441Z,7.50
2023-02-09T08:43:17.361Z,13.00
2023-02-09T08:45:51.419Z,11.50
2023-02-09T08:48:26.149Z,7.25
2023-02-09T08:50:58.200Z,8.25
2023-02-09T08:53:28.278Z,7.50
2023-02-09T08:55:56.826Z,10.50
2023-02-09T08:58:25.349Z,7.75
2023-02-09T09:00:57.022Z,15.00
2023-02-09T09:03:27.834Z,4.00
2023-02-09T09:05:57.910Z,12.25
2023-02-09T09:08:27.289Z,10.00
2023-02-09T09:10:55.242Z,10.50
2023-02-09T09:13:27.330Z,9.75
2023-02-09T09:15:56.175Z,12.50
2023-02-09T09:18:24.398Z,15.25
2023-02-09T09:20:52.698Z,10.50
2023-02-09T09:23:21.183Z,12.75
2023-02-09T09:25:50.864Z,14.00
2023-02-09T09:28:19.329Z,12.75
2023-02-09T09:30:47.400Z,10.20
2023-02-09T09:33:15.383Z,10.00
2023-02-09T09:35:45.461Z,7.00
2023-02-09T09:38:13.622Z,11.60
2023-02-09T09:40:42.856Z,15.20
2023-02-09T09:43:16.690Z,7.00
2023-02-09T09:45:46.156Z,8.00
2023-02-09T09:48:20.965Z,10.00
2023-02-09T09:50:49.045Z,13.40
2023-02-09T09:53:19.581Z,9.20
2023-02-09T09:55:47.910Z,11.20
2023-02-09T09:58:19.224Z,14.60
2023-02-09T10:00:47.412Z,10.00
2023-02-09T10:03:16.322Z,10.60
2023-02-09T10:05:44.556Z,9.60
2023-02-09T10:08:14.864Z,7.80
2023-02-09T10:10:46.234Z,19.00
2023-02-09T10:13:19.681Z,13.40
2023-02-09T10:15:48.845Z,6.80
2023-02-09T10:18:17.065Z,9.60
2023-02-09T10:20:47.845Z,14.40
2023-02-09T10:23:24.656Z,15.60
2023-02-09T10:26:03.212Z,14.80
2023-02-09T10:28:33.986Z,18.40
2023-02-09T10:31:03.132Z,11.60
2023-02-09T10:33:31.987Z,12.20
2023-02-09T10:36:01.138Z,13.00
2023-02-09T10:38:33.243Z,13.40
2023-02-09T10:41:01.601Z,15.60
2023-02-09T10:43:31.218Z,12.00
2023-02-09T10:46:01.481Z,8.20
2023-02-09T10:48:30.211Z,12.40
2023-02-09T10:50:59.084Z,14.40
2023-02-09T10:53:28.102Z,12.40
2023-02-09T10:56:00.665Z,11.80
2023-02-09T10:58:29.721Z,13.40
2023-02-09T11:01:03.130Z,13.20
2023-02-09T11:03:31.543Z,10.00
2023-02-09T11:06:01.346Z,11.20
2023-02-09T11:08:38.713Z,12.40
2023-02-09T11:11:08.106Z,13.00
2023-02-09T11:13:42.259Z,10.40
2023-02-09T11:16:21.314Z,12.40
2023-02-09T11:18:52.270Z,11.80
2023-02-09T11:21:22.624Z,10.40
2023-02-09T11:23:52.369Z,12.00
2023-02-09T11:26:25.311Z,12.80
2023-02-09T11:28:55.372Z,15.40
2023-02-09T11:31:42.351Z,8.80
2023-02-09T11:34:19.735Z,14.20
2023-02-09T11:36:58.480Z,13.00
2023-02-09T11:39:29.681Z,12.20
2023-02-09T11:42:17.469Z,18.20
2023-02-09T11:44:47.631Z,10.00
2023-02-09T11:47:19.736Z,10.40
2023-02-09T11:49:49.769Z,12.00
2023-02-09T11:52:19.770Z,12.20
2023-02-09T11:54:49.167Z,10.80
2023-02-09T11:57:22.041Z,12.20
2023-02-09T11:59:56.441Z,12.60
2023-02-09T12:02:35.212Z,7.00
2023-02-09T12:05:03.389Z,10.20
2023-02-09T12:07:33.230Z,11.20
2023-02-09T12:10:04.995Z,14.20
2023-02-09T12:12:35.892Z,14.60
2023-02-09T12:15:15.318Z,11.40
2023-02-09T12:17:47.040Z,15.00
2023-02-09T12:20:26.101Z,12.60
2023-02-09T12:22:57.404Z,7.00
2023-02-09T12:26:00.772Z,14.40
2023-02-09T12:28:47.609Z,11.60
2023-02-09T12:31:20.466Z,12.60
2023-02-09T12:34:28.582Z,9.80
2023-02-09T12:37:27.871Z,10.20
2023-02-09T12:40:18.535Z,15.60
2023-02-09T12:42:47.092Z,10.20
2023-02-09T12:45:34.920Z,17.20
2023-02-09T12:48:03.691Z,14.40
2023-02-09T12:50:47.101Z,13.40
2023-02-09T12:53:48.151Z,15.40
2023-02-09T12:56:31.866Z,12.20
2023-02-09T12:59:20.000Z,15.40
2023-02-09T13:02:14.040Z,12.40
2023-02-09T13:04:45.633Z,14.60
2023-02-09T13:07:19.525Z,16.00
2023-02-09T13:09:50.636Z,16.40
2023-02-09T13:12:32.705Z,14.60
2023-02-09T13:15:07.272Z,17.20
2023-02-09T13:17:40.196Z,15.00
2023-02-09T13:20:48.285Z,15.80
2023-02-09T13:23:24.287Z,15.20
2023-02-09T13:25:52.254Z,15.40
2023-02-09T13:28:23.025Z,16.80
2023-02-09T13:30:54.218Z,15.40
2023-02-09T13:33:28.054Z,6.80
2023-02-09T13:36:08.912Z,10.40
2023-02-09T13:38:41.372Z,11.60
2023-02-09T13:41:09.877Z,12.80
2023-02-09T13:43:40.354Z,13.40
2023-02-09T13:46:29.601Z,10.80
2023-02-09T13:49:10.342Z,11.60
2023-02-09T13:51:38.325Z,11.60
2023-02-09T13:54:07.731Z,6.60
2023-02-09T13:56:36.339Z,15.80
2023-02-09T13:59:04.539Z,13.00
2023-02-09T14:01:33.883Z,12.60
2023-02-09T14:04:05.654Z,12.00
2023-02-09T14:06:36.641Z,13.40
2023-02-09T14:09:05.550Z,19.20
2023-02-09T14:11:42.727Z,11.60
2023-02-09T14:14:12.789Z,14.60
2023-02-09T14:16:52.555Z,15.80
2023-02-09T14:19:31.259Z,12.60
2023-02-09T14:22:02.372Z,13.80
2023-02-09T14:24:41.125Z,19.40
2023-02-09T14:27:20.889Z,18.00
2023-02-09T14:29:49.430Z,9.60
2023-02-09T14:32:32.287Z,15.40
2023-02-09T14:35:11.631Z,17.20
2023-02-09T14:37:39.739Z,12.60
2023-02-09T14:40:17.508Z,17.20
2023-02-09T14:43:02.416Z,16.00
2023-02-09T14:45:33.168Z,13.20
2023-02-09T14:48:01.529Z,12.00
2023-02-09T14:50:29.622Z,16.20
2023-02-09T14:53:05.265Z,14.60
2023-02-09T14:55:40.472Z,11.20
2023-02-09T14:58:19.388Z,16.00
2023-02-09T15:00:59.541Z,13.40
2023-02-09T15:03:27.610Z,18.40
2023-02-09T15:05:57.723Z,13.00
2023-02-09T15:08:26.717Z,15.00
2023-02-09T15:10:55.365Z,18.20
2023-02-09T15:13:24.688Z,6.00
2023-02-09T15:15:53.322Z,16.00
2023-02-09T15:18:37.027Z,11.20
2023-02-09T15:21:13.004Z,18.20
2023-02-09T15:23:43.693Z,9.40
2023-02-09T15:26:12.875Z,16.00
2023-02-09T15:28:45.857Z,16.20
2023-02-09T15:31:17.608Z,8.60
2023-02-09T15:33:46.045Z,14.20
2023-02-09T15:36:14.838Z,12.00
2023-02-09T15:38:43.004Z,13.60
2023-02-09T15:41:36.134Z,14.40
2023-02-09T15:44:23.513Z,14.80
2023-02-09T15:47:08.899Z,16.00
2023-02-09T15:49:36.835Z,17.20
2023-02-09T15:52:07.784Z,13.80
2023-02-09T15:54:39.006Z,13.40
2023-02-09T15:57:25.001Z,27.80
2023-02-09T16:00:07.072Z,9.60
2023-02-09T16:02:36.538Z,15.20
2023-02-09T16:05:04.667Z,12.40
2023-02-09T16:07:32.788Z,15.00
2023-02-09T16:10:00.987Z,17.20
2023-02-09T16:12:28.906Z,9.60
2023-02-09T16:14:58.231Z,13.00
2023-02-09T16:17:26.443Z,18.20
2023-02-09T16:19:54.479Z,15.40
2023-02-09T16:22:25.230Z,13.40
2023-02-09T16:24:53.456Z,11.20
2023-02-09T16:27:24.205Z,13.40
2023-02-09T16:29:52.151Z,12.40
2023-02-09T16:32:23.072Z,15.20
2023-02-09T16:34:51.314Z,16.40
2023-02-09T16:37:23.229Z,14.20
2023-02-09T16:39:51.464Z,15.00
2023-02-09T16:42:19.464Z,14.80
2023-02-09T16:44:47.422Z,13.20
2023-02-09T16:47:17.635Z,15.60
2023-02-09T16:49:49.969Z,14.60
2023-02-09T16:52:19.278Z,15.40
2023-02-09T16:54:49.290Z,14.20
2023-02-09T16:57:18.171Z,16.20
2023-02-09T16:59:46.161Z,9.20
2023-02-09T17:02:36.756Z,15.80
2023-02-09T17:05:15.000Z,26.60
2023-02-09T17:07:54.005Z,28.80
2023-02-09T17:10:25.363Z,25.40
2023-02-09T17:12:53.876Z,11.20
2023-02-09T17:15:30.190Z,21.20
2023-02-09T17:18:02.157Z,16.00
2023-02-09T17:20:33.293Z,16.00
2023-02-09T17:23:01.583Z,17.80
2023-02-09T17:25:29.686Z,19.00
2023-02-09T17:27:57.754Z,9.60
2023-02-09T17:30:26.004Z,18.40
2023-02-09T17:32:58.742Z,21.20
2023-02-09T17:35:53.009Z,23.80
2023-02-09T17:38:21.063Z,15.80
2023-02-09T17:40:49.205Z,17.80
2023-02-09T17:43:17.188Z,18.60
2023-02-09T17:45:49.242Z,16.60
2023-02-09T17:48:17.525Z,18.80
2023-02-09T17:50:45.982Z,19.80
2023-02-09T17:53:14.926Z,21.20
2023-02-09T17:55:51.004Z,14.20
2023-02-09T17:58:19.122Z,16.20
2023-02-09T18:00:48.957Z,16.40
2023-02-09T18:03:18.477Z,18.00
2023-02-09T18:05:46.710Z,17.20
2023-02-09T18:08:14.738Z,16.40
2023-02-09T18:10:42.909Z,13.20
2023-02-09T18:13:14.580Z,16.40
2023-02-09T18:15:43.194Z,16.00
2023-02-09T18:18:11.343Z,12.40
2023-02-09T18:20:39.351Z,17.20
2023-02-09T18:23:07.304Z,18.00
2023-02-09T18:25:37.565Z,20.20
2023-02-09T19:04:10.997Z,18.80
2023-02-09T19:06:39.490Z,20.20
2023-02-09T19:09:07.657Z,20.80
2023-02-09T19:11:35.643Z,14.40
2023-02-09T19:14:20.686Z,16.80
2023-02-09T19:16:48.965Z,13.60
2023-02-09T19:19:19.073Z,24.00
2023-02-09T19:21:47.636Z,23.80
2023-02-09T19:24:15.575Z,19.00
2023-02-09T19:26:43.759Z,16.80
2023-02-09T19:29:11.657Z,17.20
2023-02-09T19:31:40.306Z,10.80
2023-02-09T19:34:08.369Z,17.60
2023-02-09T19:36:37.949Z,15.40
2023-02-09T19:39:06.341Z,26.80
2023-02-09T19:41:34.351Z,16.20
2023-02-09T19:44:02.301Z,15.80
2023-02-09T19:46:30.563Z,21.80
2023-02-09T19:48:58.520Z,21.60
2023-02-09T19:51:26.463Z,23.40
2023-02-09T19:53:56.024Z,16.40
2023-02-09T19:56:24.369Z,15.80
2023-02-09T19:58:52.494Z,19.20
2023-02-09T20:01:20.469Z,19.80
2023-02-09T20:03:49.563Z,22.40
2023-02-09T20:06:17.760Z,23.20
2023-02-09T20:08:45.658Z,18.60
2023-02-09T20:11:17.302Z,18.40
2023-02-09T20:13:45.556Z,18.40
2023-02-09T20:16:15.413Z,20.60
2023-02-09T20:18:43.582Z,20.80
2023-02-09T20:21:11.539Z,17.80
2023-02-09T20:23:39.530Z,24.20
2023-02-09T20:26:11.586Z,20.60
2023-02-09T20:28:41.236Z,21.60
2023-02-09T20:31:09.253Z,18.00
2023-02-09T20:33:37.879Z,12.20
2023-02-09T20:36:06.243Z,19.60
2023-02-09T20:38:34.603Z,20.60
2023-02-09T20:41:02.720Z,18.00
2023-02-09T20:43:48.117Z,19.00
2023-02-09T20:46:38.597Z,24.40
2023-02-09T20:49:06.535Z,19.40
2023-02-09T20:51:34.540Z,21.60
2023-02-09T20:54:02.637Z,22.80
2023-02-09T20:56:30.641Z,21.40
2023-02-09T20:58:58.564Z,20.60
2023-02-09T21:01:27.956Z,16.80
2023-02-09T21:03:56.678Z,14.60
2023-02-09T21:06:24.695Z,17.80
2023-02-09T21:08:52.630Z,21.40
2023-02-09T21:11:20.678Z,23.40
2023-02-09T21:13:49.015Z,19.20
2023-02-09T21:16:17.137Z,20.60
2023-02-09T21:18:46.555Z,24.00
2023-02-09T21:21:16.857Z,21.00
2023-02-09T21:23:45.204Z,20.20
2023-02-09T21:26:14.477Z,26.80
2023-02-09T21:28:43.720Z,30.00
2023-02-09T21:31:12.018Z,23.20
2023-02-09T21:33:39.960Z,22.00
2023-02-09T21:36:09.840Z,22.20
2023-02-09T21:38:41.446Z,27.00
2023-02-09T21:41:30.533Z,29.20
2023-02-09T21:43:58.556Z,27.40
2023-02-09T21:46:26.471Z,22.80
2023-02-09T21:48:54.603Z,28.00
2023-02-09T21:51:23.999Z,27.20
2023-02-09T21:53:52.220Z,19.80
2023-02-09T21:56:20.134Z,27.00
2023-02-09T21:58:48.153Z,22.80
2023-02-09T22:01:16.125Z,26.40
2023-02-09T22:03:44.659Z,26.80
2023-02-09T22:06:12.590Z,28.00
2023-02-09T22:08:42.494Z,29.20
2023-02-09T22:11:11.242Z,33.20
2023-02-09T22:13:39.615Z,27.40
2023-02-09T22:16:08.077Z,26.60
2023-02-09T22:18:36.082Z,27.40
2023-02-09T22:21:07.453Z,26.60
2023-02-09T22:23:35.401Z,29.00
2023-02-09T22:26:05.557Z,27.40
2023-02-09T22:28:36.164Z,32.20
2023-02-09T22:31:08.219Z,32.60
2023-02-09T22:33:36.205Z,27.60
2023-02-09T22:36:07.608Z,36.80
2023-02-09T22:38:35.493Z,22.80
2023-02-09T22:41:08.232Z,33.40
2023-02-09T22:43:36.379Z,38.80
2023-02-09T22:46:04.506Z,26.20
2023-02-09T22:48:32.418Z,37.00
2023-02-09T22:51:00.719Z,38.00
2023-02-09T22:53:28.734Z,36.00
2023-02-09T22:55:56.704Z,45.40
2023-02-09T22:58:26.085Z,36.80
2023-02-09T23:00:54.077Z,41.80
2023-02-09T23:03:22.039Z,37.60
2023-02-09T23:05:51.265Z,45.40
2023-02-09T23:08:20.043Z,27.40
2023-02-09T23:10:48.633Z,36.40
2023-02-09T23:13:16.648Z,35.60
2023-02-09T23:15:46.734Z,23.60
2023-02-09T23:18:14.981Z,34.40
2023-02-09T23:20:43.089Z,41.40
2023-02-09T23:23:11.468Z,34.40
2023-02-09T23:25:39.534Z,39.20
2023-02-09T23:28:07.702Z,35.40
2023-02-09T23:30:35.792Z,30.40
2023-02-09T23:33:05.294Z,36.00
2023-02-09T23:35:33.325Z,39.20
2023-02-09T23:38:01.825Z,35.60
2023-02-09T23:40:30.355Z,36.00
2023-02-09T23:42:58.310Z,32.80
2023-02-09T23:45:26.909Z,37.60
2023-02-09T23:47:54.939Z,34.00
2023-02-09T23:50:24.397Z,30.60
2023-02-09T23:52:52.480Z,32.80
2023-02-09T23:55:20.564Z,43.40
2023-02-09T23:57:48.701Z,40.20
